sensor_id;sensor_type;location;lat;lon;timestamp;pressure;altitude;pressure_sealevel;temperature;humidity
74936;BME280;63501;55.570;37.488;2023-09-08T00:02:01;99410.59;;;10.48;60.46
74936;BME280;63501;55.570;37.488;2023-09-08T00:04:27;99408.25;;;10.50;60.53
74936;BME280;63501;55.570;37.488;2023-09-08T00:06:54;99406.66;;;10.49;60.98
74936;BME280;63501;55.570;37.488;2023-09-08T00:09:21;99403.50;;;10.47;61.66
74936;BME280;63501;55.570;37.488;2023-09-08T00:11:47;99407.84;;;10.44;61.36
74936;BME280;63501;55.570;37.488;2023-09-08T00:14:15;99406.25;;;10.43;60.76
74936;BME280;63501;55.570;37.488;2023-09-08T00:16:42;99397.16;;;10.43;61.66
74936;BME280;63501;55.570;37.488;2023-09-08T00:19:09;99394.41;;;10.43;61.32
74936;BME280;63501;55.570;37.488;2023-09-08T00:21:36;99394.00;;;10.41;61.44
74936;BME280;63501;55.570;37.488;2023-09-08T00:24:03;99399.53;;;10.41;61.64
74936;BME280;63501;55.570;37.488;2023-09-08T00:26:30;99390.44;;;10.40;62.31
74936;BME280;63501;55.570;37.488;2023-09-08T00:28:57;99390.44;;;10.40;62.45
74936;BME280;63501;55.570;37.488;2023-09-08T00:31:25;99371.50;;;10.35;61.97
74936;BME280;63501;55.570;37.488;2023-09-08T00:33:51;99383.72;;;10.38;62.33
74936;BME280;63501;55.570;37.488;2023-09-08T00:36:18;99387.66;;;10.37;62.46
74936;BME280;63501;55.570;37.488;2023-09-08T00:38:45;99387.31;;;10.38;62.40
74936;BME280;63501;55.570;37.488;2023-09-08T00:41:12;99394.00;;;10.33;62.17
74936;BME280;63501;55.570;37.488;2023-09-08T00:43:38;99382.50;;;10.24;62.59
74936;BME280;63501;55.570;37.488;2023-09-08T00:46:05;99385.22;;;10.17;63.05
74936;BME280;63501;55.570;37.488;2023-09-08T00:48:34;99390.31;;;10.08;63.35
74936;BME280;63501;55.570;37.488;2023-09-08T00:51:00;99393.44;;;9.96;64.01
74936;BME280;63501;55.570;37.488;2023-09-08T00:53:28;99391.41;;;9.86;64.15
74936;BME280;63501;55.570;37.488;2023-09-08T00:55:54;99391.00;;;9.76;64.47
74936;BME280;63501;55.570;37.488;2023-09-08T00:58:22;99392.13;;;9.68;64.70
74936;BME280;63501;55.570;37.488;2023-09-08T01:00:49;99390.50;;;9.60;65.14
74936;BME280;63501;55.570;37.488;2023-09-08T01:03:16;99388.09;;;9.51;65.57
74936;BME280;63501;55.570;37.488;2023-09-08T01:05:44;99391.22;;;9.46;65.55
74936;BME280;63501;55.570;37.488;2023-09-08T01:08:11;99384.50;;;9.44;66.22
74936;BME280;63501;55.570;37.488;2023-09-08T01:10:39;99386.44;;;9.40;66.63
74936;BME280;63501;55.570;37.488;2023-09-08T01:13:07;99379.72;;;9.37;66.46
74936;BME280;63501;55.570;37.488;2023-09-08T01:15:34;99386.78;;;9.35;66.85
74936;BME280;63501;55.570;37.488;2023-09-08T01:18:00;99375.72;;;9.31;67.22
74936;BME280;63501;55.570;37.488;2023-09-08T01:20:29;99381.63;;;9.30;66.86
74936;BME280;63501;55.570;37.488;2023-09-08T01:25:43;99371.75;;;9.25;68.59
74936;BME280;63501;55.570;37.488;2023-09-08T01:28:13;99365.81;;;9.19;68.57
74936;BME280;63501;55.570;37.488;2023-09-08T01:30:41;99369.34;;;9.16;68.43
74936;BME280;63501;55.570;37.488;2023-09-08T01:33:07;99372.09;;;9.16;68.75
74936;BME280;63501;55.570;37.488;2023-09-08T01:35:35;99368.91;;;9.14;69.05
74936;BME280;63501;55.570;37.488;2023-09-08T01:38:01;99363.00;;;9.12;69.22
74936;BME280;63501;55.570;37.488;2023-09-08T01:40:28;99367.69;;;9.08;70.98
74936;BME280;63501;55.570;37.488;2023-09-08T01:42:56;99365.72;;;9.05;70.19
74936;BME280;63501;55.570;37.488;2023-09-08T01:45:23;99364.50;;;9.02;70.07
74936;BME280;63501;55.570;37.488;2023-09-08T01:47:49;99364.88;;;9.01;70.06
74936;BME280;63501;55.570;37.488;2023-09-08T01:50:16;99367.25;;;8.99;70.31
74936;BME280;63501;55.570;37.488;2023-09-08T01:52:47;99355.41;;;8.95;70.80
74936;BME280;63501;55.570;37.488;2023-09-08T01:55:13;99363.22;;;8.89;72.63
74936;BME280;63501;55.570;37.488;2023-09-08T01:57:41;99356.88;;;8.82;71.62
74936;BME280;63501;55.570;37.488;2023-09-08T02:00:10;99350.16;;;8.79;71.78
74936;BME280;63501;55.570;37.488;2023-09-08T02:02:37;99337.94;;;8.77;71.66
74936;BME280;63501;55.570;37.488;2023-09-08T02:05:04;99339.06;;;8.72;72.09
74936;BME280;63501;55.570;37.488;2023-09-08T02:07:31;99325.63;;;8.67;71.99
74936;BME280;63501;55.570;37.488;2023-09-08T02:09:57;99341.34;;;8.59;72.70
74936;BME280;63501;55.570;37.488;2023-09-08T02:12:24;99330.66;;;8.54;72.86
74936;BME280;63501;55.570;37.488;2023-09-08T02:14:51;99329.03;;;8.50;73.27
74936;BME280;63501;55.570;37.488;2023-09-08T02:17:19;99322.72;;;8.49;73.59
74936;BME280;63501;55.570;37.488;2023-09-08T02:19:46;99324.31;;;8.50;73.49
74936;BME280;63501;55.570;37.488;2023-09-08T02:22:12;99316.44;;;8.48;73.90
74936;BME280;63501;55.570;37.488;2023-09-08T02:24:39;99310.13;;;8.48;73.58
74936;BME280;63501;55.570;37.488;2023-09-08T02:27:06;99307.75;;;8.46;73.50
74936;BME280;63501;55.570;37.488;2023-09-08T02:29:33;99297.50;;;8.47;73.71
74936;BME280;63501;55.570;37.488;2023-09-08T02:32:00;99302.66;;;8.48;73.39
74936;BME280;63501;55.570;37.488;2023-09-08T02:34:28;99292.81;;;8.51;73.57
74936;BME280;63501;55.570;37.488;2023-09-08T02:36:55;99292.44;;;8.53;73.46
74936;BME280;63501;55.570;37.488;2023-09-08T02:39:21;99291.28;;;8.54;73.32
74936;BME280;63501;55.570;37.488;2023-09-08T02:41:48;99285.38;;;8.55;73.37
74936;BME280;63501;55.570;37.488;2023-09-08T02:44:15;99281.06;;;8.58;73.05
74936;BME280;63501;55.570;37.488;2023-09-08T02:46:42;99287.38;;;8.58;73.27
74936;BME280;63501;55.570;37.488;2023-09-08T02:49:08;99289.34;;;8.58;73.71
74936;BME280;63501;55.570;37.488;2023-09-08T02:51:36;99277.91;;;8.56;73.49
74936;BME280;63501;55.570;37.488;2023-09-08T02:54:03;99282.63;;;8.55;73.88
74936;BME280;63501;55.570;37.488;2023-09-08T02:56:30;99283.81;;;8.58;73.65
74936;BME280;63501;55.570;37.488;2023-09-08T02:58:56;99281.88;;;8.62;73.84
74936;BME280;63501;55.570;37.488;2023-09-08T03:01:23;99274.84;;;8.64;73.92
74936;BME280;63501;55.570;37.488;2023-09-08T03:03:50;99281.16;;;8.68;73.85
74936;BME280;63501;55.570;37.488;2023-09-08T03:06:18;99277.25;;;8.73;73.73
74936;BME280;63501;55.570;37.488;2023-09-08T03:08:46;99272.56;;;8.77;73.59
74936;BME280;63501;55.570;37.488;2023-09-08T03:11:13;99276.50;;;8.80;73.50
74936;BME280;63501;55.570;37.488;2023-09-08T03:13:40;99279.69;;;8.85;73.43
74936;BME280;63501;55.570;37.488;2023-09-08T03:16:07;99277.72;;;8.86;73.25
74936;BME280;63501;55.570;37.488;2023-09-08T03:18:34;99280.50;;;8.89;73.60
74936;BME280;63501;55.570;37.488;2023-09-08T03:21:01;99270.28;;;8.90;73.38
74936;BME280;63501;55.570;37.488;2023-09-08T03:23:34;99270.28;;;8.90;73.57
74936;BME280;63501;55.570;37.488;2023-09-08T03:26:02;99265.53;;;8.90;73.80
74936;BME280;63501;55.570;37.488;2023-09-08T03:28:28;99264.38;;;8.91;73.65
74936;BME280;63501;55.570;37.488;2023-09-08T03:30:55;99254.56;;;8.94;73.39
74936;BME280;63501;55.570;37.488;2023-09-08T03:33:22;99260.47;;;8.96;73.32
74936;BME280;63501;55.570;37.488;2023-09-08T03:35:48;99264.03;;;9.00;73.40
74936;BME280;63501;55.570;37.488;2023-09-08T03:38:15;99260.13;;;9.05;73.30
74936;BME280;63501;55.570;37.488;2023-09-08T03:40:42;99258.59;;;9.11;73.69
74936;BME280;63501;55.570;37.488;2023-09-08T03:43:10;99254.63;;;9.08;74.49
74936;BME280;63501;55.570;37.488;2023-09-08T03:45:37;99251.91;;;9.15;74.32
74936;BME280;63501;55.570;37.488;2023-09-08T03:48:04;99256.28;;;9.23;73.62
74936;BME280;63501;55.570;37.488;2023-09-08T03:50:30;99242.94;;;9.33;73.16
74936;BME280;63501;55.570;37.488;2023-09-08T03:52:57;99253.97;;;9.33;73.57
74936;BME280;63501;55.570;37.488;2023-09-08T03:55:24;99249.22;;;9.37;72.61
74936;BME280;63501;55.570;37.488;2023-09-08T03:57:50;99244.13;;;9.39;72.61
74936;BME280;63501;55.570;37.488;2023-09-08T04:00:19;99243.75;;;9.40;73.00
74936;BME280;63501;55.570;37.488;2023-09-08T04:02:47;99250.84;;;9.45;72.50
74936;BME280;63501;55.570;37.488;2023-09-08T04:05:14;99250.47;;;9.46;72.51
74936;BME280;63501;55.570;37.488;2023-09-08T04:07:41;99252.44;;;9.46;72.44
74936;BME280;63501;55.570;37.488;2023-09-08T04:10:08;99249.28;;;9.44;72.01
74936;BME280;63501;55.570;37.488;2023-09-08T04:12:35;99239.81;;;9.38;72.23
74936;BME280;63501;55.570;37.488;2023-09-08T04:15:01;99240.94;;;9.37;72.46
74936;BME280;63501;55.570;37.488;2023-09-08T04:17:30;99239.38;;;9.36;72.57
74936;BME280;63501;55.570;37.488;2023-09-08T04:19:57;99244.91;;;9.39;72.12
74936;BME280;63501;55.570;37.488;2023-09-08T04:22:24;99237.47;;;9.43;72.33
74936;BME280;63501;55.570;37.488;2023-09-08T04:24:50;99239.84;;;9.48;72.12
74936;BME280;63501;55.570;37.488;2023-09-08T04:27:18;99238.25;;;9.51;72.00
74936;BME280;63501;55.570;37.488;2023-09-08T04:29:45;99229.59;;;9.56;71.13
74936;BME280;63501;55.570;37.488;2023-09-08T04:32:11;99218.19;;;9.61;71.54
74936;BME280;63501;55.570;37.488;2023-09-08T04:34:40;99219.78;;;9.69;71.51
74936;BME280;63501;55.570;37.488;2023-09-08T04:37:07;99222.16;;;9.74;70.73
74936;BME280;63501;55.570;37.488;2023-09-08T04:39:34;99221.78;;;9.79;70.80
74936;BME280;63501;55.570;37.488;2023-09-08T04:42:02;99218.63;;;9.85;70.22
74936;BME280;63501;55.570;37.488;2023-09-08T04:44:29;99221.41;;;9.88;70.13
74936;BME280;63501;55.570;37.488;2023-09-08T04:46:55;99210.75;;;9.90;70.34
74936;BME280;63501;55.570;37.488;2023-09-08T04:49:22;99210.75;;;9.94;70.69
74936;BME280;63501;55.570;37.488;2023-09-08T04:51:50;99211.94;;;10.00;70.37
74936;BME280;63501;55.570;37.488;2023-09-08T04:54:17;99207.63;;;10.06;70.03
74936;BME280;63501;55.570;37.488;2023-09-08T04:56:45;99209.19;;;10.14;69.23
74936;BME280;63501;55.570;37.488;2023-09-08T04:59:11;99200.53;;;10.23;69.36
74936;BME280;63501;55.570;37.488;2023-09-08T05:01:38;99201.31;;;10.38;68.68
74936;BME280;63501;55.570;37.488;2023-09-08T05:04:05;99193.41;;;10.54;68.56
74936;BME280;63501;55.570;37.488;2023-09-08T05:06:32;99191.03;;;10.59;67.80
74936;BME280;63501;55.570;37.488;2023-09-08T05:09:00;99195.75;;;10.66;68.58
74936;BME280;63501;55.570;37.488;2023-09-08T05:11:26;99194.56;;;10.74;68.29
74936;BME280;63501;55.570;37.488;2023-09-08T05:13:53;99182.66;;;10.92;67.39
74936;BME280;63501;55.570;37.488;2023-09-08T05:16:20;99182.19;;;11.11;67.25
74936;BME280;63501;55.570;37.488;2023-09-08T05:19:01;99175.78;;;11.35;66.97
74936;BME280;63501;55.570;37.488;2023-09-08T05:21:28;99174.06;;;11.56;65.84
74936;BME280;63501;55.570;37.488;2023-09-08T05:23:55;99168.78;;;11.83;64.93
74936;BME280;63501;55.570;37.488;2023-09-08T05:26:23;99166.56;;;12.12;64.74
74936;BME280;63501;55.570;37.488;2023-09-08T05:28:50;99167.31;;;12.20;63.16
74936;BME280;63501;55.570;37.488;2023-09-08T05:31:16;99165.66;;;12.29;63.39
74936;BME280;63501;55.570;37.488;2023-09-08T05:33:43;99162.78;;;12.40;62.72
74936;BME280;63501;55.570;37.488;2023-09-08T05:36:10;99159.41;;;12.63;62.11
74936;BME280;63501;55.570;37.488;2023-09-08T05:38:36;99154.88;;;12.80;61.79
74936;BME280;63501;55.570;37.488;2023-09-08T05:41:03;99144.00;;;12.92;61.50
74936;BME280;63501;55.570;37.488;2023-09-08T05:43:31;99151.66;;;12.81;60.05
74936;BME280;63501;55.570;37.488;2023-09-08T05:45:58;99152.81;;;12.84;61.46
74936;BME280;63501;55.570;37.488;2023-09-08T05:48:25;99156.53;;;12.70;59.25
74936;BME280;63501;55.570;37.488;2023-09-08T05:50:51;99149.78;;;12.71;61.06
74936;BME280;63501;55.570;37.488;2023-09-08T05:53:18;99148.06;;;12.84;60.25
74936;BME280;63501;55.570;37.488;2023-09-08T05:55:45;99141.88;;;13.04;59.86
74936;BME280;63501;55.570;37.488;2023-09-08T05:58:11;99130.13;;;12.92;59.65
74936;BME280;63501;55.570;37.488;2023-09-08T06:00:40;99133.59;;;13.00;59.03
74936;BME280;63501;55.570;37.488;2023-09-08T06:03:07;99139.56;;;12.98;59.43
74936;BME280;63501;55.570;37.488;2023-09-08T06:05:34;99136.47;;;12.93;58.81
74936;BME280;63501;55.570;37.488;2023-09-08T06:08:00;99132.00;;;13.03;59.58
74936;BME280;63501;55.570;37.488;2023-09-08T06:10:27;99125.03;;;13.18;58.73
74936;BME280;63501;55.570;37.488;2023-09-08T06:12:55;99122.63;;;13.50;58.59
74936;BME280;63501;55.570;37.488;2023-09-08T06:15:22;99117.13;;;13.74;57.67
74936;BME280;63501;55.570;37.488;2023-09-08T06:17:50;99109.78;;;13.87;57.32
74936;BME280;63501;55.570;37.488;2023-09-08T06:20:17;99117.22;;;13.94;56.82
74936;BME280;63501;55.570;37.488;2023-09-08T06:22:44;99112.09;;;13.92;56.81
74936;BME280;63501;55.570;37.488;2023-09-08T06:25:10;99115.34;;;13.87;57.15
74936;BME280;63501;55.570;37.488;2023-09-08T06:27:37;99113.03;;;13.82;56.43
74936;BME280;63501;55.570;37.488;2023-09-08T06:30:04;99115.69;;;13.66;55.86
74936;BME280;63501;55.570;37.488;2023-09-08T06:32:31;99103.31;;;13.43;56.80
74936;BME280;63501;55.570;37.488;2023-09-08T06:34:59;99098.91;;;13.15;56.97
74936;BME280;63501;55.570;37.488;2023-09-08T06:37:26;99115.88;;;12.90;57.37
74936;BME280;63501;55.570;37.488;2023-09-08T06:39:54;99103.13;;;12.62;57.67
74936;BME280;63501;55.570;37.488;2023-09-08T06:42:21;99101.63;;;12.54;57.35
74936;BME280;63501;55.570;37.488;2023-09-08T06:44:47;99101.94;;;12.63;57.23
74936;BME280;63501;55.570;37.488;2023-09-08T06:47:14;99095.34;;;12.84;57.08
74936;BME280;63501;55.570;37.488;2023-09-08T06:49:41;99087.34;;;13.20;56.48
74936;BME280;63501;55.570;37.488;2023-09-08T06:52:09;99084.03;;;13.60;55.97
74936;BME280;63501;55.570;37.488;2023-09-08T06:54:36;99082.97;;;14.00;54.94
74936;BME280;63501;55.570;37.488;2023-09-08T06:57:02;99080.53;;;14.49;54.17
74936;BME280;63501;55.570;37.488;2023-09-08T06:59:29;99075.41;;;14.88;52.89
74936;BME280;63501;55.570;37.488;2023-09-08T07:01:56;99079.69;;;15.08;51.88
74936;BME280;63501;55.570;37.488;2023-09-08T07:04:23;99076.97;;;15.25;51.88
74936;BME280;63501;55.570;37.488;2023-09-08T07:06:49;99060.13;;;15.32;51.62
74936;BME280;63501;55.570;37.488;2023-09-08T07:09:21;99074.81;;;15.32;50.92
74936;BME280;63501;55.570;37.488;2023-09-08T07:11:47;99072.03;;;15.32;51.12
74936;BME280;63501;55.570;37.488;2023-09-08T07:14:14;99066.88;;;15.31;51.07
74936;BME280;63501;55.570;37.488;2023-09-08T07:16:41;99061.41;;;15.27;50.89
74936;BME280;63501;55.570;37.488;2023-09-08T07:19:08;99054.50;;;15.16;50.67
74936;BME280;63501;55.570;37.488;2023-09-08T07:21:34;99049.38;;;15.30;50.46
74936;BME280;63501;55.570;37.488;2023-09-08T07:24:01;99040.78;;;15.41;50.35
74936;BME280;63501;55.570;37.488;2023-09-08T07:26:29;99038.63;;;15.65;50.17
74936;BME280;63501;55.570;37.488;2023-09-08T07:28:56;99039.41;;;15.98;49.76
74936;BME280;63501;55.570;37.488;2023-09-08T07:31:22;99038.38;;;15.76;48.47
74936;BME280;63501;55.570;37.488;2023-09-08T07:33:49;99036.09;;;15.71;49.04
74936;BME280;63501;55.570;37.488;2023-09-08T07:36:16;99032.34;;;15.61;49.59
74936;BME280;63501;55.570;37.488;2023-09-08T07:38:43;99034.25;;;15.48;49.67
74936;BME280;63501;55.570;37.488;2023-09-08T07:41:09;99040.16;;;15.33;49.69
74936;BME280;63501;55.570;37.488;2023-09-08T07:43:38;99031.00;;;15.17;50.29
74936;BME280;63501;55.570;37.488;2023-09-08T07:46:06;99038.41;;;15.23;49.98
74936;BME280;63501;55.570;37.488;2023-09-08T07:48:32;99034.59;;;15.33;49.91
74936;BME280;63501;55.570;37.488;2023-09-08T07:50:59;99039.78;;;15.68;49.18
74936;BME280;63501;55.570;37.488;2023-09-08T07:53:26;99028.97;;;15.86;48.99
74936;BME280;63501;55.570;37.488;2023-09-08T07:55:52;99021.31;;;15.90;48.72
74936;BME280;63501;55.570;37.488;2023-09-08T07:58:19;99016.47;;;16.07;47.74
74936;BME280;63501;55.570;37.488;2023-09-08T08:00:47;99006.31;;;16.00;47.42
74936;BME280;63501;55.570;37.488;2023-09-08T08:03:14;99010.91;;;16.36;46.57
74936;BME280;63501;55.570;37.488;2023-09-08T08:05:40;98995.41;;;16.77;46.84
74936;BME280;63501;55.570;37.488;2023-09-08T08:08:07;98986.94;;;16.93;46.62
74936;BME280;63501;55.570;37.488;2023-09-08T08:10:34;98986.63;;;17.04;45.85
74936;BME280;63501;55.570;37.488;2023-09-08T08:13:01;98980.13;;;17.19;45.55
74936;BME280;63501;55.570;37.488;2023-09-08T08:15:34;98981.47;;;17.28;45.50
74936;BME280;63501;55.570;37.488;2023-09-08T08:18:02;98974.22;;;17.30;44.94
74936;BME280;63501;55.570;37.488;2023-09-08T08:20:29;98969.84;;;17.29;44.72
74936;BME280;63501;55.570;37.488;2023-09-08T08:22:59;98967.81;;;17.42;44.80
74936;BME280;63501;55.570;37.488;2023-09-08T08:25:26;98952.19;;;17.32;44.75
74936;BME280;63501;55.570;37.488;2023-09-08T08:27:53;98967.84;;;17.04;45.06
74936;BME280;63501;55.570;37.488;2023-09-08T08:30:19;98964.59;;;16.80;46.00
74936;BME280;63501;55.570;37.488;2023-09-08T08:32:47;98966.66;;;16.63;46.25
74936;BME280;63501;55.570;37.488;2023-09-08T08:35:17;98964.31;;;16.62;45.95
74936;BME280;63501;55.570;37.488;2023-09-08T08:37:44;98948.84;;;16.99;45.07
74936;BME280;63501;55.570;37.488;2023-09-08T08:40:11;98946.28;;;17.30;44.85
74936;BME280;63501;55.570;37.488;2023-09-08T08:42:38;98941.78;;;17.33;43.51
74936;BME280;63501;55.570;37.488;2023-09-08T08:45:06;98930.50;;;17.71;43.73
74936;BME280;63501;55.570;37.488;2023-09-08T08:47:32;98927.31;;;17.94;43.83
74936;BME280;63501;55.570;37.488;2023-09-08T08:49:59;98917.53;;;17.77;43.47
74936;BME280;63501;55.570;37.488;2023-09-08T08:52:28;98919.34;;;17.71;43.40
74936;BME280;63501;55.570;37.488;2023-09-08T08:54:55;98910.94;;;18.28;42.31
74936;BME280;63501;55.570;37.488;2023-09-08T08:57:22;98911.84;;;18.77;41.20
74936;BME280;63501;55.570;37.488;2023-09-08T08:59:49;98903.69;;;18.39;42.27
74936;BME280;63501;55.570;37.488;2023-09-08T09:02:16;98923.38;;;17.70;43.56
74936;BME280;63501;55.570;37.488;2023-09-08T09:04:44;98920.34;;;17.04;43.89
74936;BME280;63501;55.570;37.488;2023-09-08T09:07:12;98927.13;;;16.52;44.72
74936;BME280;63501;55.570;37.488;2023-09-08T09:09:40;98907.28;;;16.21;45.14
74936;BME280;63501;55.570;37.488;2023-09-08T09:12:07;98918.50;;;16.34;45.96
74936;BME280;63501;55.570;37.488;2023-09-08T09:14:34;98910.19;;;16.72;45.44
74936;BME280;63501;55.570;37.488;2023-09-08T09:17:01;98895.34;;;16.88;45.22
74936;BME280;63501;55.570;37.488;2023-09-08T09:19:30;98910.22;;;16.85;45.38
74936;BME280;63501;55.570;37.488;2023-09-08T09:21:58;98911.31;;;16.75;45.67
74936;BME280;63501;55.570;37.488;2023-09-08T09:24:29;98909.09;;;16.95;45.83
74936;BME280;63501;55.570;37.488;2023-09-08T09:26:57;98923.56;;;16.64;46.36
74936;BME280;63501;55.570;37.488;2023-09-08T09:29:24;98910.59;;;16.45;46.81
74936;BME280;63501;55.570;37.488;2023-09-08T09:31:51;98919.75;;;16.46;46.84
74936;BME280;63501;55.570;37.488;2023-09-08T09:34:19;98916.34;;;16.25;47.48
74936;BME280;63501;55.570;37.488;2023-09-08T09:36:47;98919.44;;;16.14;47.60
74936;BME280;63501;55.570;37.488;2023-09-08T09:39:16;98906.78;;;15.97;47.84
74936;BME280;63501;55.570;37.488;2023-09-08T09:41:43;98898.22;;;16.59;47.16
74936;BME280;63501;55.570;37.488;2023-09-08T09:44:11;98894.69;;;17.44;45.98
74936;BME280;63501;55.570;37.488;2023-09-08T09:46:38;98871.91;;;18.86;44.75
74936;BME280;63501;55.570;37.488;2023-09-08T09:49:05;98858.53;;;19.76;42.79
74936;BME280;63501;55.570;37.488;2023-09-08T09:51:31;98866.50;;;20.48;40.90
74936;BME280;63501;55.570;37.488;2023-09-08T09:53:58;98867.25;;;20.67;41.09
74936;BME280;63501;55.570;37.488;2023-09-08T09:56:25;98883.97;;;20.52;41.51
74936;BME280;63501;55.570;37.488;2023-09-08T09:58:53;98864.97;;;20.38;41.00
74936;BME280;63501;55.570;37.488;2023-09-08T10:01:22;98872.19;;;20.20;41.28
74936;BME280;63501;55.570;37.488;2023-09-08T10:03:49;98863.38;;;19.76;42.28
74936;BME280;63501;55.570;37.488;2023-09-08T10:06:16;98868.13;;;19.20;42.96
74936;BME280;63501;55.570;37.488;2023-09-08T10:08:44;98869.63;;;19.12;43.56
74936;BME280;63501;55.570;37.488;2023-09-08T10:11:11;98874.00;;;19.13;43.14
74936;BME280;63501;55.570;37.488;2023-09-08T10:13:44;98877.69;;;18.92;43.26
74936;BME280;63501;55.570;37.488;2023-09-08T10:16:15;98870.25;;;19.07;42.82
74936;BME280;63501;55.570;37.488;2023-09-08T10:18:44;98874.09;;;18.91;43.01
74936;BME280;63501;55.570;37.488;2023-09-08T10:21:12;98877.22;;;18.62;44.18
74936;BME280;63501;55.570;37.488;2023-09-08T10:23:40;98864.31;;;18.34;45.01
74936;BME280;63501;55.570;37.488;2023-09-08T10:26:09;98882.06;;;17.87;44.93
74936;BME280;63501;55.570;37.488;2023-09-08T10:28:36;98881.19;;;17.42;46.07
74936;BME280;63501;55.570;37.488;2023-09-08T10:31:03;98881.94;;;16.83;47.13
74936;BME280;63501;55.570;37.488;2023-09-08T10:33:30;98891.00;;;16.20;48.21
74936;BME280;63501;55.570;37.488;2023-09-08T10:35:59;98885.59;;;15.71;49.09
74936;BME280;63501;55.570;37.488;2023-09-08T10:38:31;98894.81;;;15.22;50.67
74936;BME280;63501;55.570;37.488;2023-09-08T10:43:44;98886.34;;;14.05;54.14
74936;BME280;63501;55.570;37.488;2023-09-08T10:46:12;98894.28;;;14.02;54.44
74936;BME280;63501;55.570;37.488;2023-09-08T10:48:47;98889.25;;;14.17;53.63
74936;BME280;63501;55.570;37.488;2023-09-08T10:51:15;98893.41;;;14.45;53.79
74936;BME280;63501;55.570;37.488;2023-09-08T10:53:43;98893.50;;;14.78;53.13
74936;BME280;63501;55.570;37.488;2023-09-08T10:56:12;98886.13;;;15.04;52.72
74936;BME280;63501;55.570;37.488;2023-09-08T10:58:39;98899.41;;;15.29;51.67
74936;BME280;63501;55.570;37.488;2023-09-08T11:01:12;98880.50;;;15.37;51.40
74936;BME280;63501;55.570;37.488;2023-09-08T11:03:43;98883.56;;;15.42;51.18
74936;BME280;63501;55.570;37.488;2023-09-08T11:06:10;98883.13;;;15.44;50.80
74936;BME280;63501;55.570;37.488;2023-09-08T11:08:40;98901.34;;;15.32;51.05
74936;BME280;63501;55.570;37.488;2023-09-08T11:11:07;98888.28;;;14.96;51.81
74936;BME280;63501;55.570;37.488;2023-09-08T11:13:34;98899.88;;;14.59;52.41
74936;BME280;63501;55.570;37.488;2023-09-08T11:16:01;98897.28;;;14.32;52.94
74936;BME280;63501;55.570;37.488;2023-09-08T11:18:28;98895.06;;;14.23;52.83
74936;BME280;63501;55.570;37.488;2023-09-08T11:20:55;98889.81;;;14.09;53.26
74936;BME280;63501;55.570;37.488;2023-09-08T11:23:22;98899.00;;;14.06;53.84
74936;BME280;63501;55.570;37.488;2023-09-08T11:25:51;98897.34;;;14.28;53.30
74936;BME280;63501;55.570;37.488;2023-09-08T11:28:17;98882.91;;;14.89;52.79
74936;BME280;63501;55.570;37.488;2023-09-08T11:30:45;98877.88;;;16.33;50.26
74936;BME280;63501;55.570;37.488;2023-09-08T11:33:13;98859.59;;;18.21;47.50
74936;BME280;63501;55.570;37.488;2023-09-08T11:35:40;98831.66;;;19.11;44.07
74936;BME280;63501;55.570;37.488;2023-09-08T11:38:09;98841.50;;;19.25;42.75
74936;BME280;63501;55.570;37.488;2023-09-08T11:40:36;98835.69;;;21.29;41.05
74936;BME280;63501;55.570;37.488;2023-09-08T11:43:05;98839.28;;;22.36;38.60
74936;BME280;63501;55.570;37.488;2023-09-08T11:45:33;98849.31;;;21.69;39.82
74936;BME280;63501;55.570;37.488;2023-09-08T11:48:00;98858.09;;;20.39;40.90
74936;BME280;63501;55.570;37.488;2023-09-08T11:50:27;98875.84;;;19.07;43.39
74936;BME280;63501;55.570;37.488;2023-09-08T11:52:54;98863.38;;;18.59;42.97
74936;BME280;63501;55.570;37.488;2023-09-08T11:55:23;98886.53;;;17.84;44.35
74936;BME280;63501;55.570;37.488;2023-09-08T11:57:50;98887.03;;;17.23;46.12
74936;BME280;63501;55.570;37.488;2023-09-08T12:00:21;98906.81;;;16.52;47.07
74936;BME280;63501;55.570;37.488;2023-09-08T12:02:48;98907.50;;;16.14;48.11
74936;BME280;63501;55.570;37.488;2023-09-08T12:05:20;98907.31;;;15.92;48.99
74936;BME280;63501;55.570;37.488;2023-09-08T12:07:47;98908.63;;;15.42;50.21
74936;BME280;63501;55.570;37.488;2023-09-08T12:10:14;98904.66;;;14.94;52.50
74936;BME280;63501;55.570;37.488;2023-09-08T12:12:41;98916.00;;;14.67;53.76
74936;BME280;63501;55.570;37.488;2023-09-08T12:15:08;98916.16;;;14.40;54.41
74936;BME280;63501;55.570;37.488;2023-09-08T12:17:47;98915.59;;;14.29;54.72
74936;BME280;63501;55.570;37.488;2023-09-08T12:20:14;98920.16;;;14.59;54.74
74936;BME280;63501;55.570;37.488;2023-09-08T12:22:47;98917.41;;;14.75;55.51
74936;BME280;63501;55.570;37.488;2023-09-08T12:25:14;98914.34;;;14.70;55.05
74936;BME280;63501;55.570;37.488;2023-09-08T12:27:41;98910.47;;;14.47;55.10
74936;BME280;63501;55.570;37.488;2023-09-08T12:30:08;98914.94;;;14.41;56.12
74936;BME280;63501;55.570;37.488;2023-09-08T12:32:35;98915.97;;;14.31;56.45
74936;BME280;63501;55.570;37.488;2023-09-08T12:35:04;98912.09;;;14.25;56.34
74936;BME280;63501;55.570;37.488;2023-09-08T12:37:32;98907.91;;;14.37;55.76
74936;BME280;63501;55.570;37.488;2023-09-08T12:40:00;98901.22;;;14.54;55.95
74936;BME280;63501;55.570;37.488;2023-09-08T12:42:28;98913.25;;;15.00;54.43
74936;BME280;63501;55.570;37.488;2023-09-08T12:44:55;98884.53;;;15.81;52.87
74936;BME280;63501;55.570;37.488;2023-09-08T12:47:22;98891.38;;;15.93;51.88
74936;BME280;63501;55.570;37.488;2023-09-08T12:49:49;98897.78;;;15.77;51.79
74936;BME280;63501;55.570;37.488;2023-09-08T12:52:18;98899.22;;;15.69;52.00
74936;BME280;63501;55.570;37.488;2023-09-08T12:54:45;98903.38;;;15.60;52.50
74936;BME280;63501;55.570;37.488;2023-09-08T12:57:11;98911.66;;;15.48;52.74
74936;BME280;63501;55.570;37.488;2023-09-08T12:59:38;98902.66;;;15.27;52.92